sensor_id;sensor_type;location;lat;lon;timestamp;P1;durP1;ratioP1;P2;durP2;ratioP2
17422;SDS011;8829;47.932;7.810;2023-04-25T00:01:58;2.30;;;2.10;;
17422;SDS011;8829;47.932;7.810;2023-04-25T00:04:25;5.13;;;1.80;;
17422;SDS011;8829;47.932;7.810;2023-04-25T00:06:52;3.23;;;1.87;;
17422;SDS011;8829;47.932;7.810;2023-04-25T00:09:19;2.80;;;1.80;;
17422;SDS011;8829;47.932;7.810;2023-04-25T00:11:46;2.13;;;1.93;;
17422;SDS011;8829;47.932;7.810;2023-04-25T00:14:12;2.60;;;1.87;;
17422;SDS011;8829;47.932;7.810;2023-04-25T00:16:39;2.63;;;1.90;;
17422;SDS011;8829;47.932;7.810;2023-04-25T00:19:10;4.33;;;1.97;;
17422;SDS011;8829;47.932;7.810;2023-04-25T00:21:38;3.77;;;1.97;;
17422;SDS011;8829;47.932;7.810;2023-04-25T00:24:05;2.27;;;2.17;;
17422;SDS011;8829;47.932;7.810;2023-04-25T00:26:33;6.37;;;2.50;;
17422;SDS011;8829;47.932;7.810;2023-04-25T00:28:59;2.07;;;1.87;;
17422;SDS011;8829;47.932;7.810;2023-04-25T00:31:26;2.33;;;2.20;;
17422;SDS011;8829;47.932;7.810;2023-04-25T00:33:54;3.43;;;2.10;;
17422;SDS011;8829;47.932;7.810;2023-04-25T00:36:22;2.77;;;2.37;;
17422;SDS011;8829;47.932;7.810;2023-04-25T00:38:49;2.37;;;1.90;;
17422;SDS011;8829;47.932;7.810;2023-04-25T00:41:15;8.70;;;2.20;;
17422;SDS011;8829;47.932;7.810;2023-04-25T00:43:43;3.43;;;2.00;;
17422;SDS011;8829;47.932;7.810;2023-04-25T00:46:11;2.60;;;1.90;;
17422;SDS011;8829;47.932;7.810;2023-04-25T00:48:38;2.90;;;2.10;;
17422;SDS011;8829;47.932;7.810;2023-04-25T00:51:05;2.97;;;2.10;;
17422;SDS011;8829;47.932;7.810;2023-04-25T00:53:33;4.10;;;2.10;;
17422;SDS011;8829;47.932;7.810;2023-04-25T00:56:00;3.47;;;2.37;;
17422;SDS011;8829;47.932;7.810;2023-04-25T00:58:27;3.10;;;2.00;;
17422;SDS011;8829;47.932;7.810;2023-04-25T01:00:53;2.73;;;1.63;;
17422;SDS011;8829;47.932;7.810;2023-04-25T01:03:22;2.27;;;1.80;;
17422;SDS011;8829;47.932;7.810;2023-04-25T01:05:50;3.23;;;2.50;;
17422;SDS011;8829;47.932;7.810;2023-04-25T01:08:17;6.90;;;2.30;;
17422;SDS011;8829;47.932;7.810;2023-04-25T01:10:45;6.33;;;2.40;;
17422;SDS011;8829;47.932;7.810;2023-04-25T01:13:12;5.83;;;2.03;;
17422;SDS011;8829;47.932;7.810;2023-04-25T01:15:39;2.17;;;1.83;;
17422;SDS011;8829;47.932;7.810;2023-04-25T01:18:06;3.03;;;2.00;;
17422;SDS011;8829;47.932;7.810;2023-04-25T01:20:33;2.03;;;1.93;;
17422;SDS011;8829;47.932;7.810;2023-04-25T01:23:01;5.73;;;2.57;;
17422;SDS011;8829;47.932;7.810;2023-04-25T01:25:29;3.13;;;2.43;;
17422;SDS011;8829;47.932;7.810;2023-04-25T01:27:56;2.67;;;2.07;;
17422;SDS011;8829;47.932;7.810;2023-04-25T01:30:24;2.63;;;1.80;;
17422;SDS011;8829;47.932;7.810;2023-04-25T01:32:52;3.77;;;2.33;;
17422;SDS011;8829;47.932;7.810;2023-04-25T01:35:21;2.40;;;2.20;;
17422;SDS011;8829;47.932;7.810;2023-04-25T01:37:49;4.17;;;2.40;;
17422;SDS011;8829;47.932;7.810;2023-04-25T01:40:18;3.63;;;2.03;;
17422;SDS011;8829;47.932;7.810;2023-04-25T01:42:46;3.43;;;2.03;;
17422;SDS011;8829;47.932;7.810;2023-04-25T01:45:13;3.90;;;2.27;;
17422;SDS011;8829;47.932;7.810;2023-04-25T01:47:40;2.93;;;2.10;;
17422;SDS011;8829;47.932;7.810;2023-04-25T01:50:09;4.40;;;2.40;;
17422;SDS011;8829;47.932;7.810;2023-04-25T01:52:37;2.30;;;2.00;;
17422;SDS011;8829;47.932;7.810;2023-04-25T01:55:04;2.47;;;2.00;;
17422;SDS011;8829;47.932;7.810;2023-04-25T01:57:33;1.83;;;1.73;;
17422;SDS011;8829;47.932;7.810;2023-04-25T02:00:00;4.87;;;1.87;;
17422;SDS011;8829;47.932;7.810;2023-04-25T02:02:28;2.20;;;2.00;;
17422;SDS011;8829;47.932;7.810;2023-04-25T02:04:56;3.33;;;2.00;;
17422;SDS011;8829;47.932;7.810;2023-04-25T02:07:23;2.40;;;1.60;;
17422;SDS011;8829;47.932;7.810;2023-04-25T02:09:49;4.27;;;1.80;;
17422;SDS011;8829;47.932;7.810;2023-04-25T02:12:16;2.70;;;1.90;;
17422;SDS011;8829;47.932;7.810;2023-04-25T02:14:45;2.20;;;1.97;;
17422;SDS011;8829;47.932;7.810;2023-04-25T02:27:16;4.40;;;2.10;;
17422;SDS011;8829;47.932;7.810;2023-04-25T02:29:44;2.00;;;1.70;;
17422;SDS011;8829;47.932;7.810;2023-04-25T02:32:11;2.50;;;1.70;;
17422;SDS011;8829;47.932;7.810;2023-04-25T02:34:38;4.67;;;1.80;;
17422;SDS011;8829;47.932;7.810;2023-04-25T02:37:04;1.93;;;1.83;;
17422;SDS011;8829;47.932;7.810;2023-04-25T02:39:31;6.17;;;2.03;;
17422;SDS011;8829;47.932;7.810;2023-04-25T02:41:58;3.27;;;2.00;;
17422;SDS011;8829;47.932;7.810;2023-04-25T02:44:25;2.17;;;1.97;;
17422;SDS011;8829;47.932;7.810;2023-04-25T02:46:53;3.33;;;1.80;;
17422;SDS011;8829;47.932;7.810;2023-04-25T02:49:20;4.37;;;2.07;;
17422;SDS011;8829;47.932;7.810;2023-04-25T02:51:47;3.83;;;1.87;;
17422;SDS011;8829;47.932;7.810;2023-04-25T02:54:14;2.90;;;1.70;;
17422;SDS011;8829;47.932;7.810;2023-04-25T02:56:40;1.83;;;1.73;;
17422;SDS011;8829;47.932;7.810;2023-04-25T02:59:07;5.37;;;1.80;;
17422;SDS011;8829;47.932;7.810;2023-04-25T03:01:34;2.33;;;1.77;;
17422;SDS011;8829;47.932;7.810;2023-04-25T03:04:03;3.00;;;1.63;;
17422;SDS011;8829;47.932;7.810;2023-04-25T03:06:30;2.93;;;1.60;;
17422;SDS011;8829;47.932;7.810;2023-04-25T03:08:57;2.27;;;1.93;;
17422;SDS011;8829;47.932;7.810;2023-04-25T03:11:24;1.70;;;1.60;;
17422;SDS011;8829;47.932;7.810;2023-04-25T03:13:51;3.97;;;1.73;;
17422;SDS011;8829;47.932;7.810;2023-04-25T03:16:18;3.00;;;2.23;;
17422;SDS011;8829;47.932;7.810;2023-04-25T03:18:44;4.60;;;1.73;;
17422;SDS011;8829;47.932;7.810;2023-04-25T03:21:12;1.80;;;1.70;;
17422;SDS011;8829;47.932;7.810;2023-04-25T03:23:40;7.13;;;2.23;;
17422;SDS011;8829;47.932;7.810;2023-04-25T03:26:06;3.33;;;1.60;;
17422;SDS011;8829;47.932;7.810;2023-04-25T03:28:33;1.77;;;1.63;;
17422;SDS011;8829;47.932;7.810;2023-04-25T03:31:00;2.80;;;1.73;;
17422;SDS011;8829;47.932;7.810;2023-04-25T03:33:26;5.83;;;1.90;;
17422;SDS011;8829;47.932;7.810;2023-04-25T03:35:53;6.53;;;2.07;;
17422;SDS011;8829;47.932;7.810;2023-04-25T03:38:21;2.07;;;1.60;;
17422;SDS011;8829;47.932;7.810;2023-04-25T03:40:48;4.93;;;2.27;;
17422;SDS011;8829;47.932;7.810;2023-04-25T03:43:15;2.57;;;1.77;;
17422;SDS011;8829;47.932;7.810;2023-04-25T03:45:42;4.83;;;1.70;;
17422;SDS011;8829;47.932;7.810;2023-04-25T03:48:09;3.13;;;1.90;;
17422;SDS011;8829;47.932;7.810;2023-04-25T03:50:35;2.30;;;2.10;;
17422;SDS011;8829;47.932;7.810;2023-04-25T03:53:02;2.13;;;1.60;;
17422;SDS011;8829;47.932;7.810;2023-04-25T03:55:30;6.23;;;1.77;;
17422;SDS011;8829;47.932;7.810;2023-04-25T03:57:57;5.57;;;3.60;;
17422;SDS011;8829;47.932;7.810;2023-04-25T04:00:24;2.13;;;1.70;;
17422;SDS011;8829;47.932;7.810;2023-04-25T04:02:51;2.30;;;2.07;;
17422;SDS011;8829;47.932;7.810;2023-04-25T04:05:18;3.47;;;1.80;;
17422;SDS011;8829;47.932;7.810;2023-04-25T04:07:44;2.80;;;2.20;;
17422;SDS011;8829;47.932;7.810;2023-04-25T04:10:11;3.00;;;2.27;;
17422;SDS011;8829;47.932;7.810;2023-04-25T04:12:39;2.10;;;1.87;;
17422;SDS011;8829;47.932;7.810;2023-04-25T04:15:06;4.97;;;2.03;;
17422;SDS011;8829;47.932;7.810;2023-04-25T04:17:34;3.80;;;1.70;;
17422;SDS011;8829;47.932;7.810;2023-04-25T04:20:00;3.30;;;2.20;;
17422;SDS011;8829;47.932;7.810;2023-04-25T04:22:28;5.43;;;2.10;;
17422;SDS011;8829;47.932;7.810;2023-04-25T04:24:55;2.30;;;2.10;;
17422;SDS011;8829;47.932;7.810;2023-04-25T04:27:22;6.53;;;1.90;;
17422;SDS011;8829;47.932;7.810;2023-04-25T04:29:50;2.87;;;1.70;;
17422;SDS011;8829;47.932;7.810;2023-04-25T04:32:18;4.50;;;1.70;;
17422;SDS011;8829;47.932;7.810;2023-04-25T04:34:46;2.70;;;2.33;;
17422;SDS011;8829;47.932;7.810;2023-04-25T04:37:13;4.83;;;2.13;;
17422;SDS011;8829;47.932;7.810;2023-04-25T04:39:40;4.47;;;2.60;;
17422;SDS011;8829;47.932;7.810;2023-04-25T04:42:07;6.47;;;4.10;;
17422;SDS011;8829;47.932;7.810;2023-04-25T04:44:34;7.87;;;5.30;;
17422;SDS011;8829;47.932;7.810;2023-04-25T04:47:03;4.50;;;3.20;;
17422;SDS011;8829;47.932;7.810;2023-04-25T04:49:31;4.63;;;3.70;;
17422;SDS011;8829;47.932;7.810;2023-04-25T04:51:57;3.37;;;2.80;;
17422;SDS011;8829;47.932;7.810;2023-04-25T04:54:25;2.63;;;1.80;;
17422;SDS011;8829;47.932;7.810;2023-04-25T04:56:52;3.13;;;1.93;;
17422;SDS011;8829;47.932;7.810;2023-04-25T04:59:19;3.27;;;2.00;;
17422;SDS011;8829;47.932;7.810;2023-04-25T05:01:46;3.23;;;1.97;;
17422;SDS011;8829;47.932;7.810;2023-04-25T05:04:14;5.30;;;2.00;;
17422;SDS011;8829;47.932;7.810;2023-04-25T05:06:41;5.63;;;2.07;;
17422;SDS011;8829;47.932;7.810;2023-04-25T05:09:07;3.27;;;1.90;;
17422;SDS011;8829;47.932;7.810;2023-04-25T05:11:34;3.83;;;1.80;;
17422;SDS011;8829;47.932;7.810;2023-04-25T05:14:01;5.47;;;2.40;;
17422;SDS011;8829;47.932;7.810;2023-04-25T05:16:27;3.53;;;1.97;;
17422;SDS011;8829;47.932;7.810;2023-04-25T05:18:54;5.93;;;2.20;;
17422;SDS011;8829;47.932;7.810;2023-04-25T05:21:22;2.97;;;1.67;;
17422;SDS011;8829;47.932;7.810;2023-04-25T05:23:49;2.13;;;1.80;;
17422;SDS011;8829;47.932;7.810;2023-04-25T05:26:15;1.90;;;1.20;;
17422;SDS011;8829;47.932;7.810;2023-04-25T05:28:42;3.57;;;1.50;;
17422;SDS011;8829;47.932;7.810;2023-04-25T05:31:09;2.87;;;1.13;;
17422;SDS011;8829;47.932;7.810;2023-04-25T05:33:36;3.63;;;1.07;;
17422;SDS011;8829;47.932;7.810;2023-04-25T05:36:03;2.20;;;1.13;;
17422;SDS011;8829;47.932;7.810;2023-04-25T05:38:31;0.80;;;0.80;;
17422;SDS011;8829;47.932;7.810;2023-04-25T05:40:58;1.00;;;1.00;;
17422;SDS011;8829;47.932;7.810;2023-04-25T05:43:25;1.67;;;1.57;;
17422;SDS011;8829;47.932;7.810;2023-04-25T05:45:51;1.30;;;1.20;;
17422;SDS011;8829;47.932;7.810;2023-04-25T05:48:18;0.80;;;0.80;;
17422;SDS011;8829;47.932;7.810;2023-04-25T05:50:45;4.53;;;3.33;;
17422;SDS011;8829;47.932;7.810;2023-04-25T05:53:11;4.23;;;1.73;;
17422;SDS011;8829;47.932;7.810;2023-04-25T05:55:39;1.63;;;1.30;;
17422;SDS011;8829;47.932;7.810;2023-04-25T05:58:06;1.67;;;1.17;;
17422;SDS011;8829;47.932;7.810;2023-04-25T06:00:33;2.73;;;1.83;;
17422;SDS011;8829;47.932;7.810;2023-04-25T06:02:59;3.00;;;1.37;;
17422;SDS011;8829;47.932;7.810;2023-04-25T06:05:27;1.20;;;1.10;;
17422;SDS011;8829;47.932;7.810;2023-04-25T06:07:53;1.00;;;1.00;;
17422;SDS011;8829;47.932;7.810;2023-04-25T06:10:20;1.37;;;1.27;;
17422;SDS011;8829;47.932;7.810;2023-04-25T06:12:49;1.13;;;1.03;;
17422;SDS011;8829;47.932;7.810;2023-04-25T06:15:15;1.23;;;0.90;;
17422;SDS011;8829;47.932;7.810;2023-04-25T06:17:42;0.80;;;0.80;;
17422;SDS011;8829;47.932;7.810;2023-04-25T06:20:09;1.33;;;1.27;;
17422;SDS011;8829;47.932;7.810;2023-04-25T06:22:36;1.37;;;1.20;;
17422;SDS011;8829;47.932;7.810;2023-04-25T06:25:03;1.17;;;1.03;;
17422;SDS011;8829;47.932;7.810;2023-04-25T06:27:32;2.10;;;1.10;;
17422;SDS011;8829;47.932;7.810;2023-04-25T06:30:00;2.10;;;1.37;;
17422;SDS011;8829;47.932;7.810;2023-04-25T06:32:27;1.17;;;1.00;;
17422;SDS011;8829;47.932;7.810;2023-04-25T06:34:54;1.20;;;1.17;;
17422;SDS011;8829;47.932;7.810;2023-04-25T06:37:21;0.87;;;0.87;;
17422;SDS011;8829;47.932;7.810;2023-04-25T06:39:48;1.07;;;0.70;;
17422;SDS011;8829;47.932;7.810;2023-04-25T06:42:15;1.17;;;1.17;;
17422;SDS011;8829;47.932;7.810;2023-04-25T06:44:41;1.40;;;1.30;;
17422;SDS011;8829;47.932;7.810;2023-04-25T06:47:09;0.70;;;0.70;;
17422;SDS011;8829;47.932;7.810;2023-04-25T06:49:36;0.77;;;0.77;;
17422;SDS011;8829;47.932;7.810;2023-04-25T06:52:03;1.13;;;0.67;;
17422;SDS011;8829;47.932;7.810;2023-04-25T06:54:29;0.77;;;0.77;;
17422;SDS011;8829;47.932;7.810;2023-04-25T06:56:56;1.03;;;0.80;;
17422;SDS011;8829;47.932;7.810;2023-04-25T06:59:23;1.77;;;0.80;;
17422;SDS011;8829;47.932;7.810;2023-04-25T07:01:49;0.60;;;0.60;;
17422;SDS011;8829;47.932;7.810;2023-04-25T07:04:17;0.80;;;0.80;;
17422;SDS011;8829;47.932;7.810;2023-04-25T07:06:44;1.00;;;1.00;;
17422;SDS011;8829;47.932;7.810;2023-04-25T07:09:12;1.20;;;0.93;;
17422;SDS011;8829;47.932;7.810;2023-04-25T07:11:39;0.70;;;0.70;;
17422;SDS011;8829;47.932;7.810;2023-04-25T07:14:06;0.90;;;0.90;;
17422;SDS011;8829;47.932;7.810;2023-04-25T07:16:33;1.23;;;1.10;;
17422;SDS011;8829;47.932;7.810;2023-04-25T07:18:59;0.73;;;0.73;;
17422;SDS011;8829;47.932;7.810;2023-04-25T07:21:28;0.80;;;0.80;;
17422;SDS011;8829;47.932;7.810;2023-04-25T07:23:55;2.90;;;1.47;;
17422;SDS011;8829;47.932;7.810;2023-04-25T07:26:22;1.87;;;1.70;;
17422;SDS011;8829;47.932;7.810;2023-04-25T07:28:49;1.13;;;1.10;;
17422;SDS011;8829;47.932;7.810;2023-04-25T07:31:16;1.20;;;1.10;;
17422;SDS011;8829;47.932;7.810;2023-04-25T07:33:43;1.27;;;1.20;;
17422;SDS011;8829;47.932;7.810;2023-04-25T07:36:10;1.50;;;1.37;;
17422;SDS011;8829;47.932;7.810;2023-04-25T07:38:38;2.23;;;1.30;;
17422;SDS011;8829;47.932;7.810;2023-04-25T07:41:05;1.10;;;1.10;;
17422;SDS011;8829;47.932;7.810;2023-04-25T07:43:32;1.30;;;1.20;;
17422;SDS011;8829;47.932;7.810;2023-04-25T07:45:59;1.30;;;1.20;;
17422;SDS011;8829;47.932;7.810;2023-04-25T07:48:25;1.20;;;1.20;;
17422;SDS011;8829;47.932;7.810;2023-04-25T07:50:52;1.20;;;1.20;;
17422;SDS011;8829;47.932;7.810;2023-04-25T07:53:19;1.40;;;1.27;;
17422;SDS011;8829;47.932;7.810;2023-04-25T07:55:47;1.33;;;1.27;;
17422;SDS011;8829;47.932;7.810;2023-04-25T07:58:13;1.97;;;1.70;;
17422;SDS011;8829;47.932;7.810;2023-04-25T08:00:40;2.23;;;1.50;;
17422;SDS011;8829;47.932;7.810;2023-04-25T08:03:07;1.10;;;1.10;;
17422;SDS011;8829;47.932;7.810;2023-04-25T08:05:35;2.80;;;1.20;;
17422;SDS011;8829;47.932;7.810;2023-04-25T08:08:02;1.80;;;1.63;;
17422;SDS011;8829;47.932;7.810;2023-04-25T08:10:31;2.47;;;1.40;;
17422;SDS011;8829;47.932;7.810;2023-04-25T08:12:59;1.77;;;1.40;;
17422;SDS011;8829;47.932;7.810;2023-04-25T08:15:26;2.27;;;1.60;;
17422;SDS011;8829;47.932;7.810;2023-04-25T08:17:53;1.37;;;1.27;;
17422;SDS011;8829;47.932;7.810;2023-04-25T08:20:19;1.50;;;1.40;;
17422;SDS011;8829;47.932;7.810;2023-04-25T08:22:46;1.30;;;1.20;;
17422;SDS011;8829;47.932;7.810;2023-04-25T08:25:13;1.60;;;1.50;;
17422;SDS011;8829;47.932;7.810;2023-04-25T08:27:40;1.30;;;1.30;;
17422;SDS011;8829;47.932;7.810;2023-04-25T08:30:09;2.20;;;1.43;;
17422;SDS011;8829;47.932;7.810;2023-04-25T08:32:36;2.37;;;1.57;;
17422;SDS011;8829;47.932;7.810;2023-04-25T08:35:04;1.80;;;1.63;;
17422;SDS011;8829;47.932;7.810;2023-04-25T08:37:31;1.60;;;1.50;;
17422;SDS011;8829;47.932;7.810;2023-04-25T08:39:58;1.80;;;1.50;;
17422;SDS011;8829;47.932;7.810;2023-04-25T08:42:25;1.63;;;1.53;;
17422;SDS011;8829;47.932;7.810;2023-04-25T08:44:53;1.60;;;1.50;;
17422;SDS011;8829;47.932;7.810;2023-04-25T08:47:22;2.27;;;2.07;;
17422;SDS011;8829;47.932;7.810;2023-04-25T08:49:50;1.63;;;1.53;;
17422;SDS011;8829;47.932;7.810;2023-04-25T08:52:21;1.60;;;1.50;;
17422;SDS011;8829;47.932;7.810;2023-04-25T08:54:49;1.63;;;1.50;;
17422;SDS011;8829;47.932;7.810;2023-04-25T08:57:17;2.10;;;1.40;;
17422;SDS011;8829;47.932;7.810;2023-04-25T08:59:45;1.83;;;1.73;;
17422;SDS011;8829;47.932;7.810;2023-04-25T09:02:13;1.27;;;1.20;;
17422;SDS011;8829;47.932;7.810;2023-04-25T09:04:43;1.50;;;1.40;;
17422;SDS011;8829;47.932;7.810;2023-04-25T09:07:10;1.63;;;1.47;;
17422;SDS011;8829;47.932;7.810;2023-04-25T09:09:37;1.70;;;1.60;;
17422;SDS011;8829;47.932;7.810;2023-04-25T09:12:04;1.00;;;1.00;;
17422;SDS011;8829;47.932;7.810;2023-04-25T09:14:31;1.20;;;1.10;;
17422;SDS011;8829;47.932;7.810;2023-04-25T09:16:59;1.43;;;1.33;;
17422;SDS011;8829;47.932;7.810;2023-04-25T09:19:28;1.83;;;1.20;;
17422;SDS011;8829;47.932;7.810;2023-04-25T09:21:57;1.10;;;1.10;;
17422;SDS011;8829;47.932;7.810;2023-04-25T09:24:35;1.20;;;1.00;;
17422;SDS011;8829;47.932;7.810;2023-04-25T09:27:03;3.23;;;2.57;;
17422;SDS011;8829;47.932;7.810;2023-04-25T09:29:31;1.77;;;1.67;;
17422;SDS011;8829;47.932;7.810;2023-04-25T09:32:13;2.20;;;2.00;;
17422;SDS011;8829;47.932;7.810;2023-04-25T09:34:42;5.50;;;2.67;;
17422;SDS011;8829;47.932;7.810;2023-04-25T09:37:11;6.00;;;3.47;;
17422;SDS011;8829;47.932;7.810;2023-04-25T09:39:38;1.90;;;1.77;;
17422;SDS011;8829;47.932;7.810;2023-04-25T09:42:05;3.67;;;2.90;;
17422;SDS011;8829;47.932;7.810;2023-04-25T09:44:31;2.87;;;1.97;;
17422;SDS011;8829;47.932;7.810;2023-04-25T09:46:58;4.47;;;2.80;;
17422;SDS011;8829;47.932;7.810;2023-04-25T09:49:25;3.10;;;2.80;;
17422;SDS011;8829;47.932;7.810;2023-04-25T09:51:56;1.50;;;1.40;;
17422;SDS011;8829;47.932;7.810;2023-04-25T09:54:24;1.67;;;1.57;;
17422;SDS011;8829;47.932;7.810;2023-04-25T09:56:52;1.60;;;1.50;;
17422;SDS011;8829;47.932;7.810;2023-04-25T09:59:19;1.20;;;1.20;;
17422;SDS011;8829;47.932;7.810;2023-04-25T10:01:47;4.07;;;1.40;;
17422;SDS011;8829;47.932;7.810;2023-04-25T10:04:16;1.07;;;1.07;;
17422;SDS011;8829;47.932;7.810;2023-04-25T10:06:47;1.27;;;1.13;;
17422;SDS011;8829;47.932;7.810;2023-04-25T10:09:17;1.40;;;1.30;;
17422;SDS011;8829;47.932;7.810;2023-04-25T10:11:47;0.97;;;0.97;;
17422;SDS011;8829;47.932;7.810;2023-04-25T10:14:14;1.30;;;1.20;;
17422;SDS011;8829;47.932;7.810;2023-04-25T10:16:41;1.13;;;0.90;;
17422;SDS011;8829;47.932;7.810;2023-04-25T10:19:09;1.20;;;1.03;;
17422;SDS011;8829;47.932;7.810;2023-04-25T10:21:36;1.03;;;1.03;;
17422;SDS011;8829;47.932;7.810;2023-04-25T10:24:12;1.27;;;1.17;;
17422;SDS011;8829;47.932;7.810;2023-04-25T10:26:39;1.27;;;1.17;;
17422;SDS011;8829;47.932;7.810;2023-04-25T10:29:08;1.77;;;1.30;;
17422;SDS011;8829;47.932;7.810;2023-04-25T10:31:38;1.80;;;1.40;;
17422;SDS011;8829;47.932;7.810;2023-04-25T10:34:11;2.40;;;1.90;;
17422;SDS011;8829;47.932;7.810;2023-04-25T10:36:38;1.50;;;1.40;;
17422;SDS011;8829;47.932;7.810;2023-04-25T10:39:05;2.23;;;2.00;;
17422;SDS011;8829;47.932;7.810;2023-04-25T10:41:45;1.13;;;1.13;;
17422;SDS011;8829;47.932;7.810;2023-04-25T10:44:14;1.80;;;1.10;;
17422;SDS011;8829;47.932;7.810;2023-04-25T10:46:41;1.43;;;1.33;;
17422;SDS011;8829;47.932;7.810;2023-04-25T10:49:10;1.00;;;1.00;;
17422;SDS011;8829;47.932;7.810;2023-04-25T10:51:36;2.10;;;1.20;;
17422;SDS011;8829;47.932;7.810;2023-04-25T10:54:04;0.90;;;0.90;;
17422;SDS011;8829;47.932;7.810;2023-04-25T10:56:32;1.23;;;1.07;;
17422;SDS011;8829;47.932;7.810;2023-04-25T10:59:04;1.67;;;1.57;;
17422;SDS011;8829;47.932;7.810;2023-04-25T11:01:38;1.20;;;1.20;;
17422;SDS011;8829;47.932;7.810;2023-04-25T11:04:05;1.67;;;1.40;;
17422;SDS011;8829;47.932;7.810;2023-04-25T11:06:46;1.87;;;1.23;;
17422;SDS011;8829;47.932;7.810;2023-04-25T11:09:24;1.20;;;1.20;;
17422;SDS011;8829;47.932;7.810;2023-04-25T11:11:53;1.60;;;1.13;;
17422;SDS011;8829;47.932;7.810;2023-04-25T11:14:20;1.57;;;1.47;;
17422;SDS011;8829;47.932;7.810;2023-04-25T11:16:48;1.50;;;1.40;;
17422;SDS011;8829;47.932;7.810;2023-04-25T11:19:19;1.40;;;1.30;;
17422;SDS011;8829;47.932;7.810;2023-04-25T11:21:46;1.60;;;1.50;;
17422;SDS011;8829;47.932;7.810;2023-04-25T11:24:12;2.03;;;1.80;;
17422;SDS011;8829;47.932;7.810;2023-04-25T11:26:40;1.50;;;1.40;;
17422;SDS011;8829;47.932;7.810;2023-04-25T11:29:07;1.43;;;1.33;;
17422;SDS011;8829;47.932;7.810;2023-04-25T11:31:34;4.63;;;1.40;;
17422;SDS011;8829;47.932;7.810;2023-04-25T11:34:02;1.40;;;1.30;;
17422;SDS011;8829;47.932;7.810;2023-04-25T11:36:29;2.37;;;1.40;;
17422;SDS011;8829;47.932;7.810;2023-04-25T11:38:56;1.70;;;1.60;;
17422;SDS011;8829;47.932;7.810;2023-04-25T11:41:23;1.90;;;1.80;;
17422;SDS011;8829;47.932;7.810;2023-04-25T11:43:51;1.90;;;1.80;;
17422;SDS011;8829;47.932;7.810;2023-04-25T11:46:19;1.50;;;1.40;;
17422;SDS011;8829;47.932;7.810;2023-04-25T11:48:45;1.10;;;1.10;;
17422;SDS011;8829;47.932;7.810;2023-04-25T11:51:14;1.70;;;1.40;;
17422;SDS011;8829;47.932;7.810;2023-04-25T11:53:41;1.10;;;1.10;;
17422;SDS011;8829;47.932;7.810;2023-04-25T11:56:09;1.87;;;1.60;;
17422;SDS011;8829;47.932;7.810;2023-04-25T12:01:26;2.73;;;1.53;;
17422;SDS011;8829;47.932;7.810;2023-04-25T12:03:54;1.20;;;1.20;;
17422;SDS011;8829;47.932;7.810;2023-04-25T12:06:23;1.93;;;1.50;;
17422;SDS011;8829;47.932;7.810;2023-04-25T12:08:59;1.50;;;1.40;;
17422;SDS011;8829;47.932;7.810;2023-04-25T12:11:30;1.97;;;1.10;;
17422;SDS011;8829;47.932;7.810;2023-04-25T12:14:01;1.27;;;1.20;;
17422;SDS011;8829;47.932;7.810;2023-04-25T12:16:29;1.67;;;1.50;;
17422;SDS011;8829;47.932;7.810;2023-04-25T12:18:57;1.13;;;1.13;;
17422;SDS011;8829;47.932;7.810;2023-04-25T12:21:29;1.53;;;1.43;;
17422;SDS011;8829;47.932;7.810;2023-04-25T12:24:07;1.03;;;1.03;;
17422;SDS011;8829;47.932;7.810;2023-04-25T12:26:47;1.27;;;1.17;;
17422;SDS011;8829;47.932;7.810;2023-04-25T12:29:16;1.40;;;1.30;;
17422;SDS011;8829;47.932;7.810;2023-04-25T12:31:44;2.80;;;1.50;;
17422;SDS011;8829;47.932;7.810;2023-04-25T12:34:11;1.10;;;1.10;;
17422;SDS011;8829;47.932;7.810;2023-04-25T12:36:39;1.17;;;1.17;;
17422;SDS011;8829;47.932;7.810;2023-04-25T12:39:06;1.40;;;1.00;;
17422;SDS011;8829;47.932;7.810;2023-04-25T12:41:33;1.10;;;1.10;;
17422;SDS011;8829;47.932;7.810;2023-04-25T12:44:00;1.10;;;1.10;;
17422;SDS011;8829;47.932;7.810;2023-04-25T12:46:26;1.30;;;1.03;;
17422;SDS011;8829;47.932;7.810;2023-04-25T12:48:53;1.33;;;1.23;;
17422;SDS011;8829;47.932;7.810;2023-04-25T12:51:21;2.63;;;1.50;;
17422;SDS011;8829;47.932;7.810;2023-04-25T12:53:51;0.93;;;0.93;;
17422;SDS011;8829;47.932;7.810;2023-04-25T12:56:18;1.43;;;1.33;;
17422;SDS011;8829;47.932;7.810;2023-04-25T12:58:45;1.20;;;1.07;;
17422;SDS011;8829;47.932;7.810;2023-04-25T13:01:13;0.90;;;0.90;;
17422;SDS011;8829;47.932;7.810;2023-04-25T13:03:40;1.20;;;1.10;;
17422;SDS011;8829;47.932;7.810;2023-04-25T13:06:06;1.20;;;1.20;;
17422;SDS011;8829;47.932;7.810;2023-04-25T13:08:33;0.80;;;0.80;;
17422;SDS011;8829;47.932;7.810;2023-04-25T13:11:03;0.90;;;0.90;;
17422;SDS011;8829;47.932;7.810;2023-04-25T13:13:30;1.47;;;1.20;;
17422;SDS011;8829;47.932;7.810;2023-04-25T13:15:57;2.63;;;1.10;;
17422;SDS011;8829;47.932;7.810;2023-04-25T13:18:24;1.10;;;1.10;;
17422;SDS011;8829;47.932;7.810;2023-04-25T13:20:51;1.37;;;1.17;;
17422;SDS011;8829;47.932;7.810;2023-04-25T13:23:18;1.37;;;1.23;;
17422;SDS011;8829;47.932;7.810;2023-04-25T13:25:45;1.80;;;1.50;;
17422;SDS011;8829;47.932;7.810;2023-04-25T13:28:13;1.40;;;1.30;;
17422;SDS011;8829;47.932;7.810;2023-04-25T13:30:40;1.13;;;1.13;;
17422;SDS011;8829;47.932;7.810;2023-04-25T13:33:07;1.40;;;1.30;;
17422;SDS011;8829;47.932;7.810;2023-04-25T13:35:34;2.13;;;1.10;;
17422;SDS011;8829;47.932;7.810;2023-04-25T13:38:01;1.40;;;1.30;;
17422;SDS011;8829;47.932;7.810;2023-04-25T13:40:28;1.40;;;1.30;;
17422;SDS011;8829;47.932;7.810;2023-04-25T13:42:55;2.00;;;1.20;;
17422;SDS011;8829;47.932;7.810;2023-04-25T13:45:23;2.03;;;1.23;;
17422;SDS011;8829;47.932;7.810;2023-04-25T13:47:50;2.20;;;1.07;;
17422;SDS011;8829;47.932;7.810;2023-04-25T13:50:17;1.27;;;1.00;;
17422;SDS011;8829;47.932;7.810;2023-04-25T13:52:43;2.03;;;1.20;;
17422;SDS011;8829;47.932;7.810;2023-04-25T13:55:10;0.80;;;0.80;;
17422;SDS011;8829;47.932;7.810;2023-04-25T13:57:37;0.80;;;0.80;;
17422;SDS011;8829;47.932;7.810;2023-04-25T14:00:04;0.80;;;0.80;;
17422;SDS011;8829;47.932;7.810;2023-04-25T14:02:35;0.70;;;0.70;;
17422;SDS011;8829;47.932;7.810;2023-04-25T14:05:01;1.00;;;1.00;;
17422;SDS011;8829;47.932;7.810;2023-04-25T14:07:29;1.53;;;1.43;;
17422;SDS011;8829;47.932;7.810;2023-04-25T14:09:56;1.00;;;1.00;;
17422;SDS011;8829;47.932;7.810;2023-04-25T14:12:23;1.37;;;1.33;;
17422;SDS011;8829;47.932;7.810;2023-04-25T14:14:50;2.23;;;1.40;;
17422;SDS011;8829;47.932;7.810;2023-04-25T14:17:17;1.00;;;1.00;;
17422;SDS011;8829;47.932;7.810;2023-04-25T14:19:45;4.20;;;1.20;;
17422;SDS011;8829;47.932;7.810;2023-04-25T14:22:13;1.17;;;1.07;;
17422;SDS011;8829;47.932;7.810;2023-04-25T14:24:40;1.70;;;1.17;;
17422;SDS011;8829;47.932;7.810;2023-04-25T14:27:07;1.00;;;1.00;;
17422;SDS011;8829;47.932;7.810;2023-04-25T14:29:33;0.90;;;0.90;;
17422;SDS011;8829;47.932;7.810;2023-04-25T14:32:00;1.43;;;1.33;;
17422;SDS011;8829;47.932;7.810;2023-04-25T14:34:27;1.10;;;1.10;;
17422;SDS011;8829;47.932;7.810;2023-04-25T14:36:56;1.23;;;1.23;;
17422;SDS011;8829;47.932;7.810;2023-04-25T14:39:23;2.27;;;1.50;;
17422;SDS011;8829;47.932;7.810;2023-04-25T14:41:49;2.43;;;2.33;;
17422;SDS011;8829;47.932;7.810;2023-04-25T14:44:16;3.40;;;2.40;;
17422;SDS011;8829;47.932;7.810;2023-04-25T14:46:43;1.90;;;1.80;;
17422;SDS011;8829;47.932;7.810;2023-04-25T14:49:10;8.83;;;1.70;;
17422;SDS011;8829;47.932;7.810;2023-04-25T14:51:36;2.73;;;1.50;;
17422;SDS011;8829;47.932;7.810;2023-04-25T14:54:04;1.60;;;1.53;;
17422;SDS011;8829;47.932;7.810;2023-04-25T14:56:31;4.27;;;1.53;;
17422;SDS011;8829;47.932;7.810;2023-04-25T14:58:58;1.33;;;1.20;;
17422;SDS011;8829;47.932;7.810;2023-04-25T15:01:25;1.10;;;1.10;;
17422;SDS011;8829;47.932;7.810;2023-04-25T15:03:52;1.53;;;1.43;;
17422;SDS011;8829;47.932;7.810;2023-04-25T15:06:18;1.43;;;1.43;;
17422;SDS011;8829;47.932;7.810;2023-04-25T15:08:45;1.17;;;1.17;;
17422;SDS011;8829;47.932;7.810;2023-04-25T15:11:13;1.27;;;1.20;;
17422;SDS011;8829;47.932;7.810;2023-04-25T15:13:40;2.30;;;1.53;;
17422;SDS011;8829;47.932;7.810;2023-04-25T15:16:06;1.70;;;1.60;;